createdAt,value
2018-12-07T00:02:12.689Z,99.90
2018-12-07T00:04:40.166Z,99.90
2018-12-07T00:07:07.706Z,99.90
2018-12-07T00:09:35.145Z,99.90
2018-12-07T00:12:02.745Z,99.90
2018-12-07T00:14:30.202Z,99.90
2018-12-07T00:16:57.705Z,99.90
2018-12-07T00:19:25.206Z,99.90
2018-12-07T00:21:52.664Z,99.90
2018-12-07T00:24:20.118Z,99.90
2018-12-07T00:26:47.590Z,99.90
2018-12-07T00:29:15.188Z,99.90
2018-12-07T00:31:42.947Z,99.90
2018-12-07T00:34:10.466Z,99.90
2018-12-07T00:36:37.898Z,99.90
2018-12-07T00:39:06.906Z,99.90
2018-12-07T00:41:34.442Z,99.90
2018-12-07T00:44:02.004Z,99.90
2018-12-07T00:46:29.425Z,99.90
2018-12-07T00:48:56.951Z,99.90
2018-12-07T00:51:24.394Z,99.90
2018-12-07T00:53:51.853Z,99.90
2018-12-07T00:56:19.294Z,99.90
2018-12-07T00:58:46.769Z,99.90
2018-12-07T01:01:14.210Z,99.90
2018-12-07T01:03:41.723Z,99.90
2018-12-07T01:06:09.293Z,99.90
2018-12-07T01:08:36.753Z,99.90
2018-12-07T01:11:04.333Z,99.90
2018-12-07T01:13:31.800Z,99.90
2018-12-07T01:15:59.344Z,99.90
2018-12-07T01:18:26.808Z,99.90
2018-12-07T01:20:54.338Z,99.90
2018-12-07T01:23:21.923Z,99.90
2018-12-07T01:25:49.374Z,99.90
2018-12-07T01:28:16.825Z,99.90
2018-12-07T01:30:44.321Z,99.90
2018-12-07T01:33:11.855Z,99.90
2018-12-07T01:35:39.422Z,99.90
2018-12-07T01:38:06.905Z,99.90
2018-12-07T01:40:34.353Z,99.90
2018-12-07T01:43:01.831Z,99.90
2018-12-07T01:45:29.364Z,99.90
2018-12-07T01:47:56.947Z,99.90
2018-12-07T01:50:24.450Z,99.90
2018-12-07T01:52:52.016Z,99.90
2018-12-07T01:55:19.609Z,99.90
2018-12-07T01:57:47.053Z,99.90
2018-12-07T02:00:14.583Z,99.90
2018-12-07T02:02:42.034Z,99.90
2018-12-07T02:05:09.494Z,99.90
2018-12-07T02:07:37.055Z,99.90
2018-12-07T02:10:05.186Z,99.90
2018-12-07T02:12:32.654Z,99.90
2018-12-07T02:15:00.095Z,99.90
2018-12-07T02:17:27.574Z,99.90
2018-12-07T02:19:55.053Z,99.90
2018-12-07T02:22:22.717Z,99.90
2018-12-07T02:24:50.274Z,99.90
2018-12-07T02:27:17.846Z,99.90
2018-12-07T02:29:45.373Z,99.90
2018-12-07T02:32:12.953Z,99.90
2018-12-07T02:34:40.549Z,99.90
2018-12-07T02:37:08.174Z,99.90
2018-12-07T02:39:35.653Z,99.90
2018-12-07T02:42:03.337Z,99.90
2018-12-07T02:44:30.801Z,99.90
2018-12-07T02:46:58.234Z,99.90
2018-12-07T02:49:25.760Z,99.90
2018-12-07T02:51:53.292Z,99.90
2018-12-07T02:54:20.763Z,99.90
2018-12-07T02:56:48.206Z,99.90
2018-12-07T02:59:15.665Z,99.90
2018-12-07T03:01:43.110Z,99.90
2018-12-07T03:04:10.597Z,99.90
2018-12-07T03:06:38.162Z,99.90
2018-12-07T03:09:06.265Z,99.90
2018-12-07T03:11:33.721Z,99.90
2018-12-07T03:14:01.194Z,99.90
2018-12-07T03:16:28.672Z,99.90
2018-12-07T03:18:56.116Z,99.90
2018-12-07T03:21:23.586Z,99.90
2018-12-07T03:23:51.020Z,99.90
2018-12-07T03:26:18.547Z,99.90
2018-12-07T03:28:46.086Z,99.90
2018-12-07T03:31:13.531Z,99.90
2018-12-07T03:33:41.073Z,99.90
2018-12-07T03:36:08.538Z,99.90
2018-12-07T03:38:35.976Z,99.90
2018-12-07T03:41:03.709Z,99.90
2018-12-07T03:43:31.159Z,99.90
2018-12-07T03:45:58.690Z,99.90
2018-12-07T03:48:26.134Z,99.90
2018-12-07T03:50:53.602Z,99.90
2018-12-07T03:53:21.058Z,99.90
2018-12-07T03:55:48.523Z,99.90
2018-12-07T03:58:15.971Z,99.90
2018-12-07T04:00:43.445Z,99.90
2018-12-07T04:03:10.881Z,99.90
2018-12-07T04:05:38.628Z,99.90
2018-12-07T04:08:06.353Z,99.90
2018-12-07T04:10:33.816Z,99.90
2018-12-07T04:13:01.252Z,99.90
2018-12-07T04:15:29.192Z,99.90
2018-12-07T04:17:56.621Z,99.90
2018-12-07T04:20:24.195Z,99.90
2018-12-07T04:22:52.481Z,99.90
2018-12-07T04:25:20.015Z,99.90
2018-12-07T04:27:47.533Z,99.90
2018-12-07T04:30:21.769Z,99.90
2018-12-07T04:32:49.276Z,99.90
2018-12-07T04:35:16.786Z,99.90
2018-12-07T04:37:44.259Z,99.90
2018-12-07T04:40:11.817Z,99.90
2018-12-07T04:42:39.276Z,99.90
2018-12-07T04:45:06.849Z,99.90
2018-12-07T04:47:34.398Z,99.90
2018-12-07T04:50:01.829Z,99.90
2018-12-07T04:52:29.385Z,99.90
2018-12-07T04:54:56.874Z,99.90
2018-12-07T04:57:24.336Z,99.90
2018-12-07T04:59:51.775Z,99.90
2018-12-07T05:02:19.231Z,99.90
2018-12-07T05:04:46.766Z,99.90
2018-12-07T05:07:14.298Z,99.90
2018-12-07T05:09:41.737Z,99.90
2018-12-07T05:12:09.202Z,99.90
2018-12-07T05:14:36.763Z,99.90
2018-12-07T05:17:04.301Z,99.90
2018-12-07T05:19:31.928Z,99.90
2018-12-07T05:21:59.442Z,99.90
2018-12-07T05:24:26.868Z,99.90
2018-12-07T05:26:54.720Z,99.90
2018-12-07T05:29:22.210Z,99.90
2018-12-07T05:31:49.673Z,99.90
2018-12-07T05:34:17.104Z,99.90
2018-12-07T05:36:44.620Z,99.90
2018-12-07T05:39:12.138Z,99.90
2018-12-07T05:41:39.601Z,99.90
2018-12-07T05:44:07.047Z,99.90
2018-12-07T05:46:34.512Z,99.90
2018-12-07T05:49:01.957Z,99.90
2018-12-07T05:51:29.485Z,99.90
2018-12-07T05:53:56.919Z,99.90
2018-12-07T05:56:24.432Z,99.90
2018-12-07T05:58:52.011Z,99.90
2018-12-07T06:01:19.434Z,99.90
2018-12-07T06:03:46.909Z,99.90
2018-12-07T06:06:14.362Z,99.90
2018-12-07T06:08:41.842Z,99.90
2018-12-07T06:11:09.365Z,99.90
2018-12-07T06:13:36.828Z,99.90
2018-12-07T06:16:04.431Z,99.90
2018-12-07T06:18:31.904Z,99.90
2018-12-07T06:20:59.338Z,99.90
2018-12-07T06:23:27.041Z,99.90
2018-12-07T06:25:54.558Z,99.90
2018-12-07T06:28:22.021Z,99.90
2018-12-07T06:30:49.494Z,99.90
2018-12-07T06:33:16.962Z,99.90
2018-12-07T06:35:44.395Z,99.90
2018-12-07T06:38:11.867Z,99.90
2018-12-07T06:40:39.306Z,99.90
2018-12-07T06:43:06.767Z,99.90
2018-12-07T06:45:35.187Z,99.90
2018-12-07T06:48:02.945Z,99.90
2018-12-07T06:50:30.473Z,99.90
2018-12-07T06:52:57.983Z,99.90
2018-12-07T06:55:25.436Z,99.90
2018-12-07T06:57:52.957Z,99.90
2018-12-07T07:00:20.387Z,99.90
2018-12-07T07:02:47.868Z,99.90
2018-12-07T07:05:15.374Z,99.90
2018-12-07T07:07:43.038Z,99.90
2018-12-07T07:10:10.589Z,99.90
2018-12-07T07:12:38.042Z,99.90
2018-12-07T07:15:05.543Z,99.90
2018-12-07T07:17:33.005Z,99.90
2018-12-07T07:20:00.440Z,99.90
2018-12-07T07:22:27.888Z,99.90
2018-12-07T07:24:55.374Z,99.90
2018-12-07T07:27:22.818Z,99.90
2018-12-07T07:29:50.290Z,99.90
2018-12-07T07:32:17.730Z,99.90
2018-12-07T07:34:45.243Z,99.90
2018-12-07T07:37:12.670Z,99.90
2018-12-07T07:39:40.135Z,99.90
2018-12-07T07:42:07.570Z,99.90
2018-12-07T07:44:35.171Z,99.90
2018-12-07T07:47:02.730Z,99.90
2018-12-07T07:49:30.174Z,99.90
2018-12-07T07:51:57.621Z,99.90
2018-12-07T07:54:25.227Z,99.90
2018-12-07T07:56:52.845Z,99.90
2018-12-07T07:59:20.376Z,99.90
2018-12-07T08:01:47.901Z,99.90
2018-12-07T08:04:15.347Z,99.90
2018-12-07T08:06:42.893Z,99.90
2018-12-07T08:09:10.341Z,99.90
2018-12-07T08:11:37.805Z,99.90
2018-12-07T08:14:05.261Z,99.90
2018-12-07T08:16:32.822Z,99.90
2018-12-07T08:19:00.249Z,99.90
2018-12-07T08:21:27.706Z,99.90
2018-12-07T08:23:55.153Z,99.90
2018-12-07T08:26:22.623Z,99.90
2018-12-07T08:28:50.090Z,99.90
2018-12-07T08:31:17.633Z,99.90
2018-12-07T08:33:45.136Z,99.90
2018-12-07T08:36:12.691Z,99.90
2018-12-07T08:38:40.125Z,99.90
2018-12-07T08:41:07.574Z,99.90
2018-12-07T08:43:35.019Z,99.90
2018-12-07T08:46:02.489Z,99.90
2018-12-07T08:48:29.929Z,99.90
2018-12-07T08:50:57.413Z,99.90
2018-12-07T08:53:24.920Z,99.90
2018-12-07T08:55:52.399Z,99.90
2018-12-07T08:58:19.838Z,99.90
2018-12-07T09:00:47.376Z,99.90
2018-12-07T09:03:14.899Z,99.90
2018-12-07T09:05:42.362Z,99.90
2018-12-07T09:08:15.081Z,99.90
2018-12-07T09:10:39.385Z,99.90
2018-12-07T09:13:06.825Z,99.90
2018-12-07T09:15:34.281Z,99.90
2018-12-07T09:18:01.712Z,99.90
2018-12-07T09:20:29.193Z,99.90
2018-12-07T09:22:56.722Z,99.90
2018-12-07T09:25:24.182Z,99.90
2018-12-07T09:27:51.670Z,99.90
2018-12-07T09:30:19.209Z,99.90
2018-12-07T09:32:46.645Z,99.90
2018-12-07T09:35:14.128Z,99.90
2018-12-07T09:37:41.569Z,99.90
2018-12-07T09:40:09.125Z,99.90
2018-12-07T09:42:36.628Z,99.90
2018-12-07T09:45:05.885Z,99.90
2018-12-07T09:47:33.416Z,99.90
2018-12-07T09:50:00.975Z,99.90
2018-12-07T09:52:28.505Z,99.90
2018-12-07T09:54:55.946Z,99.90
2018-12-07T09:57:23.413Z,99.90
2018-12-07T09:59:50.850Z,99.90
2018-12-07T10:02:18.356Z,99.90
2018-12-07T10:04:45.781Z,99.90
2018-12-07T10:07:13.633Z,99.90
2018-12-07T10:09:41.066Z,99.90
2018-12-07T10:12:08.542Z,99.90
2018-12-07T10:14:36.001Z,99.90
2018-12-07T10:17:03.633Z,99.90
2018-12-07T10:19:31.070Z,99.90
2018-12-07T10:21:58.545Z,99.90
2018-12-07T10:24:25.987Z,99.90
2018-12-07T10:26:53.513Z,99.90
2018-12-07T10:29:20.991Z,99.90
2018-12-07T10:31:48.438Z,99.90
2018-12-07T10:34:15.890Z,99.90
2018-12-07T10:36:43.466Z,99.90
2018-12-07T10:39:10.904Z,99.90
2018-12-07T10:41:38.480Z,99.90
2018-12-07T10:44:05.893Z,99.90
2018-12-07T10:46:33.430Z,99.90
2018-12-07T10:49:00.977Z,99.90
2018-12-07T10:51:28.959Z,99.90
2018-12-07T10:53:56.713Z,99.90
2018-12-07T10:56:24.177Z,99.90
2018-12-07T10:58:51.673Z,99.90
2018-12-07T11:01:24.726Z,99.90
2018-12-07T11:03:57.894Z,99.90
2018-12-07T11:06:31.000Z,99.90
2018-12-07T11:09:03.135Z,99.90
2018-12-07T11:11:36.270Z,99.90
2018-12-07T11:14:09.455Z,99.90
2018-12-07T11:16:42.745Z,99.90
2018-12-07T11:19:15.787Z,99.90
2018-12-07T11:21:49.080Z,99.90
2018-12-07T11:24:22.068Z,99.90
2018-12-07T11:26:55.233Z,99.90
2018-12-07T11:32:49.302Z,99.90
2018-12-07T11:35:18.717Z,99.90
2018-12-07T11:37:46.206Z,99.90
2018-12-07T11:40:13.682Z,99.90
2018-12-07T11:42:41.197Z,99.90
2018-12-07T11:45:08.779Z,99.90
2018-12-07T11:47:36.238Z,99.90
2018-12-07T11:50:05.830Z,99.90
2018-12-07T11:52:33.371Z,99.90
2018-12-07T11:55:00.810Z,99.90
2018-12-07T11:57:28.277Z,99.90
2018-12-07T11:59:55.790Z,99.90
2018-12-07T12:02:26.380Z,99.90
2018-12-07T12:04:52.694Z,99.90
2018-12-07T12:07:20.173Z,99.90
2018-12-07T12:09:47.610Z,99.90
2018-12-07T12:12:15.096Z,99.90
2018-12-07T12:14:42.565Z,99.90
2018-12-07T12:17:10.002Z,99.90
2018-12-07T12:19:37.481Z,99.90
2018-12-07T12:22:04.945Z,99.90
2018-12-07T12:24:32.385Z,99.90
2018-12-07T12:26:59.827Z,99.90
2018-12-07T12:29:27.293Z,99.90
2018-12-07T12:31:54.781Z,99.90
2018-12-07T12:34:22.320Z,99.90
2018-12-07T12:36:49.854Z,99.90
2018-12-07T12:39:17.317Z,99.90
2018-12-07T12:41:46.892Z,99.90
2018-12-07T12:44:14.352Z,99.90
2018-12-07T12:46:41.964Z,99.90
2018-12-07T12:49:09.430Z,99.90
2018-12-07T12:51:36.975Z,99.90
2018-12-07T12:54:04.534Z,99.90
2018-12-07T12:56:31.949Z,99.90
2018-12-07T12:58:59.409Z,99.90
2018-12-07T13:01:26.933Z,99.90
2018-12-07T13:03:54.402Z,99.90
2018-12-07T13:06:22.130Z,99.90
2018-12-07T13:08:49.589Z,99.90
2018-12-07T13:11:17.026Z,99.90
2018-12-07T13:13:44.502Z,99.90
2018-12-07T13:16:11.983Z,99.90
2018-12-07T13:18:39.435Z,99.90
2018-12-07T13:21:06.965Z,99.90
2018-12-07T13:23:34.423Z,99.90
2018-12-07T13:26:01.859Z,99.90
2018-12-07T13:28:29.375Z,99.90
2018-12-07T13:30:59.181Z,99.90
2018-12-07T13:33:26.654Z,99.90
2018-12-07T13:35:54.094Z,99.90
2018-12-07T13:38:21.789Z,99.90
2018-12-07T13:40:49.342Z,99.90
2018-12-07T13:43:17.042Z,99.90
2018-12-07T13:45:45.096Z,99.90
2018-12-07T13:48:12.888Z,99.90
2018-12-07T13:50:40.813Z,99.90
2018-12-07T13:53:08.512Z,99.90
2018-12-07T13:55:36.801Z,99.90
2018-12-07T13:58:04.444Z,99.90
2018-12-07T14:00:32.270Z,99.90
2018-12-07T14:03:00.029Z,99.90
2018-12-07T14:05:32.271Z,99.90
2018-12-07T14:07:57.342Z,99.90
2018-12-07T14:10:25.024Z,99.90
2018-12-07T14:12:53.298Z,99.90
2018-12-07T14:15:20.858Z,99.90
2018-12-07T14:17:49.597Z,99.90
2018-12-07T14:20:17.226Z,99.90
2018-12-07T14:22:44.859Z,99.90
2018-12-07T14:25:12.644Z,99.90
2018-12-07T14:27:40.226Z,99.90
2018-12-07T14:30:07.909Z,99.90
2018-12-07T14:32:35.612Z,99.90
2018-12-07T14:35:04.488Z,99.90
2018-12-07T14:37:31.994Z,99.90
2018-12-07T14:39:59.625Z,99.90
2018-12-07T14:42:27.185Z,99.90
2018-12-07T14:44:54.714Z,99.90
2018-12-07T14:47:22.144Z,99.90
2018-12-07T14:49:49.913Z,99.90
2018-12-07T14:52:17.495Z,99.90
2018-12-07T14:54:45.172Z,99.90
2018-12-07T14:57:12.956Z,99.90
2018-12-07T14:59:40.591Z,99.90
2018-12-07T15:02:08.382Z,99.90
2018-12-07T15:04:36.062Z,99.90
2018-12-07T15:07:03.707Z,99.90
2018-12-07T15:09:31.523Z,99.90
2018-12-07T15:11:59.092Z,99.90
2018-12-07T15:14:26.819Z,99.90
2018-12-07T15:16:54.386Z,99.90
2018-12-07T15:19:21.916Z,99.90
2018-12-07T15:21:49.489Z,99.90
2018-12-07T15:24:17.133Z,99.90
2018-12-07T15:26:44.785Z,99.90
2018-12-07T15:29:12.518Z,99.90
2018-12-07T15:31:40.191Z,99.90
2018-12-07T15:34:07.772Z,99.90
2018-12-07T15:36:35.486Z,99.90
2018-12-07T15:39:04.817Z,99.90
2018-12-07T15:41:32.461Z,99.90
2018-12-07T15:44:00.055Z,99.90
2018-12-07T15:46:27.671Z,99.90
2018-12-07T15:48:55.711Z,99.90
2018-12-07T15:51:23.502Z,99.90
2018-12-07T15:53:51.322Z,99.90
2018-12-07T15:56:18.992Z,99.90
2018-12-07T15:58:46.465Z,99.90
2018-12-07T16:01:13.977Z,99.90
2018-12-07T16:03:41.467Z,99.90
2018-12-07T16:06:09.087Z,99.90
2018-12-07T16:08:36.692Z,99.90
2018-12-07T16:11:04.631Z,99.90
2018-12-07T16:13:32.613Z,99.90
2018-12-07T16:16:00.479Z,99.90
2018-12-07T16:18:28.050Z,99.90
2018-12-07T16:20:55.781Z,99.90
2018-12-07T16:23:24.403Z,99.90
2018-12-07T16:25:52.366Z,99.90
2018-12-07T16:28:20.025Z,99.90
2018-12-07T16:30:47.884Z,99.90
2018-12-07T16:33:15.434Z,99.90
2018-12-07T16:35:43.220Z,99.90
2018-12-07T16:38:10.951Z,99.90
2018-12-07T16:40:38.602Z,99.90
2018-12-07T16:43:06.176Z,99.90
2018-12-07T16:45:33.908Z,99.90
2018-12-07T16:48:01.662Z,99.90
2018-12-07T16:50:30.032Z,99.90
2018-12-07T16:52:57.628Z,99.90
2018-12-07T16:55:25.431Z,99.90
2018-12-07T16:57:53.126Z,99.90
2018-12-07T17:00:20.751Z,99.90
2018-12-07T17:02:48.324Z,99.90
2018-12-07T17:05:17.380Z,99.90
2018-12-07T17:07:44.887Z,99.90
2018-12-07T17:10:13.025Z,99.90
2018-12-07T17:12:40.975Z,99.90
2018-12-07T17:15:08.504Z,99.90
2018-12-07T17:17:36.069Z,99.90
2018-12-07T17:20:05.062Z,99.90
2018-12-07T17:22:32.628Z,99.90
2018-12-07T17:25:00.170Z,99.90
2018-12-07T17:27:27.897Z,99.90
2018-12-07T17:29:55.588Z,99.90
2018-12-07T17:32:23.210Z,99.90
2018-12-07T17:34:50.881Z,99.90
2018-12-07T17:37:18.511Z,99.90
2018-12-07T17:39:46.020Z,99.90
2018-12-07T17:42:14.113Z,99.90
2018-12-07T17:44:41.924Z,99.90
2018-12-07T17:47:09.466Z,99.90
2018-12-07T17:49:37.050Z,99.90
2018-12-07T17:52:04.534Z,99.90
2018-12-07T17:54:31.982Z,99.90
2018-12-07T17:56:59.588Z,99.90
2018-12-07T17:59:27.317Z,99.90
2018-12-07T18:01:54.953Z,99.90
2018-12-07T18:04:22.401Z,99.90
2018-12-07T18:06:50.165Z,99.90
2018-12-07T18:09:17.992Z,99.90
2018-12-07T18:11:45.825Z,99.90
2018-12-07T18:14:13.680Z,99.90
2018-12-07T18:16:41.494Z,99.90
2018-12-07T18:19:09.244Z,99.90
2018-12-07T18:21:36.815Z,99.90
2018-12-07T18:24:04.504Z,99.90
2018-12-07T18:26:32.182Z,99.90
2018-12-07T18:28:59.872Z,99.90
2018-12-07T18:31:27.682Z,99.90
2018-12-07T18:33:55.293Z,99.90
2018-12-07T18:36:22.962Z,99.90
2018-12-07T18:38:50.503Z,99.90
2018-12-07T18:41:18.279Z,99.90
2018-12-07T18:43:45.840Z,99.90
2018-12-07T18:46:13.426Z,99.90
2018-12-07T18:48:41.359Z,99.90
2018-12-07T18:51:09.144Z,99.90
2018-12-07T18:53:36.834Z,99.90
2018-12-07T18:56:04.608Z,99.90
2018-12-07T18:58:32.109Z,99.90
2018-12-07T19:00:59.647Z,99.90
2018-12-07T19:03:27.179Z,99.90
2018-12-07T19:05:54.704Z,99.90
2018-12-07T19:08:22.436Z,99.90
2018-12-07T19:10:50.272Z,99.90
2018-12-07T19:13:17.972Z,99.90
2018-12-07T19:15:45.635Z,99.90
2018-12-07T19:18:13.337Z,99.90
2018-12-07T19:20:41.208Z,99.90
2018-12-07T19:23:09.114Z,99.90
2018-12-07T19:25:36.981Z,99.90
2018-12-07T19:28:04.932Z,99.90
2018-12-07T19:30:32.581Z,99.90
2018-12-07T19:33:00.343Z,99.90
2018-12-07T19:35:27.924Z,99.90
2018-12-07T19:37:55.713Z,99.90
2018-12-07T19:40:23.245Z,99.90
2018-12-07T19:42:50.868Z,99.90
2018-12-07T19:45:18.426Z,99.90
2018-12-07T19:47:46.381Z,99.90
2018-12-07T19:50:14.216Z,99.70
2018-12-07T19:52:41.910Z,99.50
2018-12-07T19:55:10.810Z,99.00
2018-12-07T19:57:38.389Z,98.50
2018-12-07T20:00:08.783Z,98.70
2018-12-07T20:02:36.445Z,99.00
2018-12-07T20:05:05.595Z,98.90
2018-12-07T20:07:33.121Z,98.90
2018-12-07T20:10:00.685Z,99.30
2018-12-07T20:12:28.589Z,99.00
2018-12-07T20:14:56.215Z,99.10
2018-12-07T20:17:24.188Z,99.60
2018-12-07T20:19:51.702Z,99.90
2018-12-07T20:22:19.303Z,99.70
2018-12-07T20:24:47.072Z,99.90
2018-12-07T20:27:14.785Z,99.90
2018-12-07T20:29:42.497Z,99.90
2018-12-07T20:32:10.187Z,99.90
2018-12-07T20:34:37.868Z,99.90
2018-12-07T20:37:05.680Z,99.90
2018-12-07T20:39:33.374Z,99.90
2018-12-07T20:42:00.995Z,99.90
2018-12-07T20:44:28.536Z,99.90
2018-12-07T20:46:56.358Z,99.90
2018-12-07T20:49:24.043Z,99.90
2018-12-07T20:51:51.506Z,99.90
2018-12-07T20:54:19.612Z,99.90
2018-12-07T20:56:47.199Z,99.90
2018-12-07T20:59:15.302Z,99.90
2018-12-07T21:01:51.006Z,99.90
2018-12-07T21:04:31.361Z,99.90
2018-12-07T21:10:52.197Z,99.90
2018-12-07T21:13:41.866Z,99.90
2018-12-07T21:16:43.687Z,99.90
2018-12-07T21:19:11.382Z,99.90
2018-12-07T21:21:39.320Z,99.90
2018-12-07T21:24:06.888Z,99.90
2018-12-07T21:26:34.480Z,99.90
2018-12-07T21:29:02.284Z,99.90
2018-12-07T21:31:30.090Z,99.90
2018-12-07T21:34:03.710Z,99.90
2018-12-07T21:36:36.427Z,99.90
2018-12-07T21:39:11.940Z,99.90
2018-12-07T21:41:39.432Z,99.90
2018-12-07T21:44:07.004Z,99.90
2018-12-07T21:46:34.539Z,99.90
2018-12-07T21:49:02.084Z,99.90
2018-12-07T21:51:36.679Z,99.90
2018-12-07T21:54:04.306Z,99.90
2018-12-07T21:56:31.872Z,99.90
2018-12-07T21:58:59.479Z,99.90
2018-12-07T22:01:27.281Z,99.90
2018-12-07T22:03:55.025Z,99.90
2018-12-07T22:06:22.758Z,99.90
2018-12-07T22:08:50.645Z,99.90
2018-12-07T22:11:18.604Z,99.90
2018-12-07T22:13:46.417Z,99.90
2018-12-07T22:16:14.015Z,99.90
2018-12-07T22:18:41.479Z,99.90
2018-12-07T22:21:09.223Z,99.90
2018-12-07T22:23:36.926Z,99.90
2018-12-07T22:26:04.363Z,99.90
2018-12-07T22:28:32.057Z,99.90
2018-12-07T22:30:59.669Z,99.90
2018-12-07T22:33:27.131Z,99.90
2018-12-07T22:35:54.871Z,99.90
2018-12-07T22:38:22.929Z,99.90
2018-12-07T22:40:50.627Z,99.90
2018-12-07T22:43:18.547Z,99.90
2018-12-07T22:45:46.422Z,99.60
2018-12-07T22:48:13.905Z,98.80
2018-12-07T22:50:41.442Z,98.20
2018-12-07T22:53:08.877Z,98.20
2018-12-07T22:55:36.371Z,98.20
2018-12-07T22:58:03.811Z,97.60
2018-12-07T23:00:31.538Z,97.40
2018-12-07T23:02:59.008Z,97.70
2018-12-07T23:05:26.495Z,98.00
2018-12-07T23:07:53.920Z,98.10
2018-12-07T23:10:21.389Z,98.60
2018-12-07T23:12:48.847Z,98.70
2018-12-07T23:15:16.290Z,98.80
2018-12-07T23:17:43.725Z,99.10
2018-12-07T23:20:11.181Z,99.20
2018-12-07T23:22:38.671Z,99.40
2018-12-07T23:25:06.270Z,99.40
2018-12-07T23:27:33.730Z,99.10
2018-12-07T23:30:01.406Z,99.10
2018-12-07T23:32:28.851Z,99.00
2018-12-07T23:34:56.360Z,99.00
2018-12-07T23:37:23.845Z,98.90
2018-12-07T23:39:51.456Z,98.80
2018-12-07T23:42:19.049Z,98.60
2018-12-07T23:44:46.711Z,98.20
2018-12-07T23:47:14.205Z,98.50
2018-12-07T23:49:41.655Z,98.40
2018-12-07T23:52:09.169Z,98.30
2018-12-07T23:54:36.586Z,98.40
2018-12-07T23:57:04.021Z,98.40
2018-12-07T23:59:31.493Z,98.50
